Terminal Aerodrome Forecast
Issued by NWS

Home | Current Version | Previous Version | Text Only | Print | Product List | Glossary On
Versions: 1 2 3 4 5 6 7 8 9 10 11 12 13 14 15 16
000
FTUS45 KRIW 201130
TAFPNA
TAF
KPNA 201130Z 2012/2112 31007KT P6SM VCSH SCT025 OVC050
      TEMPO 2015/2018 2SM -SN BKN020
     FM201800 31012KT 2SM -SN OVC015
     FM210200 30008KT P6SM VCSH OVC028
     FM210700 30008KT P6SM OVC040
      AMD LTD TO CLD VIS AND WIND=

USA.gov is the U.S. government's official web portal to all federal, state and local government web resources and services.